sensor_id;sensor_type;location;lat;lon;timestamp;pressure;altitude;pressure_sealevel;temperature;humidity
81299;BME280;70766;53.170;18.160;2023-12-04T00:02:09;101675.70;;;-2.45;100.00
81299;BME280;70766;53.170;18.160;2023-12-04T00:04:44;101674.61;;;-2.45;100.00
81299;BME280;70766;53.170;18.160;2023-12-04T00:07:13;101674.92;;;-2.47;100.00
81299;BME280;70766;53.170;18.160;2023-12-04T00:09:43;101672.16;;;-2.47;100.00
81299;BME280;70766;53.170;18.160;2023-12-04T00:12:12;101675.20;;;-2.48;100.00
81299;BME280;70766;53.170;18.160;2023-12-04T00:14:40;101680.50;;;-2.48;100.00
81299;BME280;70766;53.170;18.160;2023-12-04T00:17:10;101679.46;;;-2.48;100.00
81299;BME280;70766;53.170;18.160;2023-12-04T00:19:43;101679.54;;;-2.47;100.00
81299;BME280;70766;53.170;18.160;2023-12-04T00:22:12;101683.52;;;-2.46;100.00
81299;BME280;70766;53.170;18.160;2023-12-04T00:24:49;101687.52;;;-2.48;100.00
81299;BME280;70766;53.170;18.160;2023-12-04T00:27:18;101690.23;;;-2.47;100.00
81299;BME280;70766;53.170;18.160;2023-12-04T00:29:46;101688.98;;;-2.47;100.00
81299;BME280;70766;53.170;18.160;2023-12-04T00:32:17;101689.27;;;-2.46;100.00
81299;BME280;70766;53.170;18.160;2023-12-04T00:34:45;101686.73;;;-2.47;100.00
81299;BME280;70766;53.170;18.160;2023-12-04T00:37:13;101689.59;;;-2.48;100.00
81299;BME280;70766;53.170;18.160;2023-12-04T00:39:49;101695.39;;;-2.46;100.00
81299;BME280;70766;53.170;18.160;2023-12-04T00:42:17;101692.69;;;-2.45;100.00
81299;BME280;70766;53.170;18.160;2023-12-04T00:44:45;101695.18;;;-2.43;100.00
81299;BME280;70766;53.170;18.160;2023-12-04T00:47:16;101695.28;;;-2.45;100.00
81299;BME280;70766;53.170;18.160;2023-12-04T00:49:45;101694.41;;;-2.45;100.00
81299;BME280;70766;53.170;18.160;2023-12-04T00:52:14;101695.99;;;-2.45;100.00
81299;BME280;70766;53.170;18.160;2023-12-04T00:54:42;101693.08;;;-2.43;100.00
81299;BME280;70766;53.170;18.160;2023-12-04T00:57:11;101695.98;;;-2.42;100.00
81299;BME280;70766;53.170;18.160;2023-12-04T00:59:40;101698.89;;;-2.41;100.00
81299;BME280;70766;53.170;18.160;2023-12-04T01:02:08;101701.41;;;-2.43;100.00
81299;BME280;70766;53.170;18.160;2023-12-04T01:04:40;101698.80;;;-2.42;100.00
81299;BME280;70766;53.170;18.160;2023-12-04T01:07:09;101701.80;;;-2.41;100.00
81299;BME280;70766;53.170;18.160;2023-12-04T01:09:37;101704.20;;;-2.40;100.00
81299;BME280;70766;53.170;18.160;2023-12-04T01:12:06;101704.05;;;-2.40;100.00
81299;BME280;70766;53.170;18.160;2023-12-04T01:14:35;101707.61;;;-2.41;100.00
81299;BME280;70766;53.170;18.160;2023-12-04T01:17:07;101702.16;;;-2.41;100.00
81299;BME280;70766;53.170;18.160;2023-12-04T01:19:35;101704.81;;;-2.39;100.00
81299;BME280;70766;53.170;18.160;2023-12-04T01:22:05;101704.41;;;-2.38;100.00
81299;BME280;70766;53.170;18.160;2023-12-04T01:24:35;101709.99;;;-2.38;100.00
81299;BME280;70766;53.170;18.160;2023-12-04T01:27:03;101707.44;;;-2.39;100.00
81299;BME280;70766;53.170;18.160;2023-12-04T01:29:32;101712.17;;;-2.39;100.00
81299;BME280;70766;53.170;18.160;2023-12-04T01:32:00;101711.33;;;-2.39;100.00
81299;BME280;70766;53.170;18.160;2023-12-04T01:34:28;101710.16;;;-2.40;100.00
81299;BME280;70766;53.170;18.160;2023-12-04T01:36:57;101716.50;;;-2.38;100.00
81299;BME280;70766;53.170;18.160;2023-12-04T01:39:25;101711.80;;;-2.39;100.00
81299;BME280;70766;53.170;18.160;2023-12-04T01:41:54;101710.02;;;-2.38;100.00
81299;BME280;70766;53.170;18.160;2023-12-04T01:44:22;101713.65;;;-2.38;100.00
81299;BME280;70766;53.170;18.160;2023-12-04T01:46:51;101713.77;;;-2.37;100.00
81299;BME280;70766;53.170;18.160;2023-12-04T01:49:19;101712.48;;;-2.36;100.00
81299;BME280;70766;53.170;18.160;2023-12-04T01:51:48;101709.33;;;-2.36;100.00
81299;BME280;70766;53.170;18.160;2023-12-04T01:54:16;101713.79;;;-2.35;100.00
81299;BME280;70766;53.170;18.160;2023-12-04T01:56:46;101717.25;;;-2.34;100.00
81299;BME280;70766;53.170;18.160;2023-12-04T01:59:15;101713.40;;;-2.34;100.00
81299;BME280;70766;53.170;18.160;2023-12-04T02:01:43;101711.75;;;-2.33;100.00
81299;BME280;70766;53.170;18.160;2023-12-04T02:04:12;101713.54;;;-2.32;100.00
81299;BME280;70766;53.170;18.160;2023-12-04T02:06:40;101714.15;;;-2.33;100.00
81299;BME280;70766;53.170;18.160;2023-12-04T02:09:09;101717.74;;;-2.34;100.00
81299;BME280;70766;53.170;18.160;2023-12-04T02:11:40;101721.33;;;-2.35;100.00
81299;BME280;70766;53.170;18.160;2023-12-04T02:14:09;101728.20;;;-2.33;100.00
81299;BME280;70766;53.170;18.160;2023-12-04T02:16:40;101728.64;;;-2.32;100.00
81299;BME280;70766;53.170;18.160;2023-12-04T02:19:11;101730.80;;;-2.31;100.00
81299;BME280;70766;53.170;18.160;2023-12-04T02:21:40;101728.06;;;-2.29;100.00
81299;BME280;70766;53.170;18.160;2023-12-04T02:24:10;101727.27;;;-2.28;100.00
81299;BME280;70766;53.170;18.160;2023-12-04T02:26:52;101722.59;;;-2.31;100.00
81299;BME280;70766;53.170;18.160;2023-12-04T02:29:29;101719.73;;;-2.31;100.00
81299;BME280;70766;53.170;18.160;2023-12-04T02:32:01;101711.58;;;-2.31;100.00
81299;BME280;70766;53.170;18.160;2023-12-04T02:34:32;101716.00;;;-2.32;100.00
81299;BME280;70766;53.170;18.160;2023-12-04T02:37:01;101716.89;;;-2.32;100.00
81299;BME280;70766;53.170;18.160;2023-12-04T02:39:30;101710.63;;;-2.30;100.00
81299;BME280;70766;53.170;18.160;2023-12-04T02:41:58;101715.42;;;-2.31;100.00
81299;BME280;70766;53.170;18.160;2023-12-04T02:44:27;101720.10;;;-2.31;100.00
81299;BME280;70766;53.170;18.160;2023-12-04T02:46:55;101717.92;;;-2.30;100.00
81299;BME280;70766;53.170;18.160;2023-12-04T02:49:24;101723.85;;;-2.32;100.00
81299;BME280;70766;53.170;18.160;2023-12-04T02:51:52;101725.91;;;-2.31;100.00
81299;BME280;70766;53.170;18.160;2023-12-04T02:54:20;101730.96;;;-2.30;100.00
81299;BME280;70766;53.170;18.160;2023-12-04T02:56:50;101733.89;;;-2.32;100.00
81299;BME280;70766;53.170;18.160;2023-12-04T02:59:18;101728.49;;;-2.33;100.00
81299;BME280;70766;53.170;18.160;2023-12-04T03:01:46;101728.50;;;-2.35;100.00
81299;BME280;70766;53.170;18.160;2023-12-04T03:04:14;101734.09;;;-2.35;100.00
81299;BME280;70766;53.170;18.160;2023-12-04T03:06:43;101734.96;;;-2.37;100.00
81299;BME280;70766;53.170;18.160;2023-12-04T03:09:12;101732.06;;;-2.36;100.00
81299;BME280;70766;53.170;18.160;2023-12-04T03:11:40;101734.61;;;-2.37;100.00
81299;BME280;70766;53.170;18.160;2023-12-04T03:14:09;101732.75;;;-2.40;100.00
81299;BME280;70766;53.170;18.160;2023-12-04T03:16:37;101735.60;;;-2.38;100.00
81299;BME280;70766;53.170;18.160;2023-12-04T03:19:06;101736.52;;;-2.39;100.00
81299;BME280;70766;53.170;18.160;2023-12-04T03:21:36;101735.48;;;-2.41;100.00
81299;BME280;70766;53.170;18.160;2023-12-04T03:24:05;101737.88;;;-2.40;100.00
81299;BME280;70766;53.170;18.160;2023-12-04T03:26:33;101737.34;;;-2.42;100.00
81299;BME280;70766;53.170;18.160;2023-12-04T03:29:02;101743.66;;;-2.43;100.00
81299;BME280;70766;53.170;18.160;2023-12-04T03:31:30;101743.56;;;-2.44;100.00
81299;BME280;70766;53.170;18.160;2023-12-04T03:34:00;101742.06;;;-2.44;100.00
81299;BME280;70766;53.170;18.160;2023-12-04T03:36:29;101744.16;;;-2.45;100.00
81299;BME280;70766;53.170;18.160;2023-12-04T03:38:57;101744.42;;;-2.45;100.00
81299;BME280;70766;53.170;18.160;2023-12-04T03:41:26;101747.33;;;-2.47;100.00
81299;BME280;70766;53.170;18.160;2023-12-04T03:44:01;101742.88;;;-2.48;100.00
81299;BME280;70766;53.170;18.160;2023-12-04T03:46:30;101749.91;;;-2.46;100.00
81299;BME280;70766;53.170;18.160;2023-12-04T03:48:59;101744.80;;;-2.48;100.00
81299;BME280;70766;53.170;18.160;2023-12-04T03:51:28;101751.35;;;-2.47;100.00
81299;BME280;70766;53.170;18.160;2023-12-04T03:53:56;101750.70;;;-2.47;100.00
81299;BME280;70766;53.170;18.160;2023-12-04T03:56:25;101744.74;;;-2.50;100.00
81299;BME280;70766;53.170;18.160;2023-12-04T03:58:54;101744.76;;;-2.50;100.00
81299;BME280;70766;53.170;18.160;2023-12-04T04:01:23;101742.77;;;-2.52;100.00
81299;BME280;70766;53.170;18.160;2023-12-04T04:03:51;101744.13;;;-2.53;100.00
81299;BME280;70766;53.170;18.160;2023-12-04T04:06:20;101742.48;;;-2.52;100.00
81299;BME280;70766;53.170;18.160;2023-12-04T04:08:51;101740.23;;;-2.52;100.00
81299;BME280;70766;53.170;18.160;2023-12-04T04:11:20;101741.59;;;-2.54;100.00
81299;BME280;70766;53.170;18.160;2023-12-04T04:13:49;101740.08;;;-2.55;100.00
81299;BME280;70766;53.170;18.160;2023-12-04T04:16:17;101737.48;;;-2.55;100.00
81299;BME280;70766;53.170;18.160;2023-12-04T04:18:46;101734.60;;;-2.57;100.00
81299;BME280;70766;53.170;18.160;2023-12-04T04:21:14;101741.00;;;-2.58;100.00
81299;BME280;70766;53.170;18.160;2023-12-04T04:23:43;101740.81;;;-2.60;100.00
81299;BME280;70766;53.170;18.160;2023-12-04T04:26:11;101737.88;;;-2.60;100.00
81299;BME280;70766;53.170;18.160;2023-12-04T04:28:39;101740.02;;;-2.61;100.00
81299;BME280;70766;53.170;18.160;2023-12-04T04:31:07;101744.77;;;-2.61;100.00
81299;BME280;70766;53.170;18.160;2023-12-04T04:33:36;101749.61;;;-2.63;100.00
81299;BME280;70766;53.170;18.160;2023-12-04T04:36:06;101746.68;;;-2.63;100.00
81299;BME280;70766;53.170;18.160;2023-12-04T04:38:39;101750.36;;;-2.66;100.00
81299;BME280;70766;53.170;18.160;2023-12-04T04:41:13;101748.80;;;-2.66;100.00
81299;BME280;70766;53.170;18.160;2023-12-04T04:43:42;101744.19;;;-2.67;100.00
81299;BME280;70766;53.170;18.160;2023-12-04T04:46:10;101743.47;;;-2.70;100.00
81299;BME280;70766;53.170;18.160;2023-12-04T04:48:40;101749.73;;;-2.69;100.00
81299;BME280;70766;53.170;18.160;2023-12-04T04:51:08;101749.44;;;-2.70;100.00
81299;BME280;70766;53.170;18.160;2023-12-04T04:53:36;101751.54;;;-2.72;100.00
81299;BME280;70766;53.170;18.160;2023-12-04T04:56:04;101748.29;;;-2.71;100.00
81299;BME280;70766;53.170;18.160;2023-12-04T04:58:32;101752.40;;;-2.72;100.00
81299;BME280;70766;53.170;18.160;2023-12-04T05:01:01;101748.59;;;-2.72;100.00
81299;BME280;70766;53.170;18.160;2023-12-04T05:03:30;101748.57;;;-2.72;100.00
81299;BME280;70766;53.170;18.160;2023-12-04T05:05:58;101745.11;;;-2.72;100.00
81299;BME280;70766;53.170;18.160;2023-12-04T05:08:26;101743.67;;;-2.72;100.00
81299;BME280;70766;53.170;18.160;2023-12-04T05:10:54;101746.02;;;-2.73;100.00
81299;BME280;70766;53.170;18.160;2023-12-04T05:13:22;101749.00;;;-2.73;100.00
81299;BME280;70766;53.170;18.160;2023-12-04T05:15:51;101751.67;;;-2.74;100.00
81299;BME280;70766;53.170;18.160;2023-12-04T05:18:19;101754.73;;;-2.75;100.00
81299;BME280;70766;53.170;18.160;2023-12-04T05:20:47;101756.36;;;-2.75;100.00
81299;BME280;70766;53.170;18.160;2023-12-04T05:23:15;101755.44;;;-2.75;100.00
81299;BME280;70766;53.170;18.160;2023-12-04T05:25:44;101750.61;;;-2.76;100.00
81299;BME280;70766;53.170;18.160;2023-12-04T05:28:20;101751.62;;;-2.77;100.00
81299;BME280;70766;53.170;18.160;2023-12-04T05:30:48;101748.15;;;-2.78;100.00
81299;BME280;70766;53.170;18.160;2023-12-04T05:33:16;101750.52;;;-2.79;100.00
81299;BME280;70766;53.170;18.160;2023-12-04T05:35:45;101752.55;;;-2.80;100.00
81299;BME280;70766;53.170;18.160;2023-12-04T05:38:14;101752.95;;;-2.81;100.00
81299;BME280;70766;53.170;18.160;2023-12-04T05:40:43;101753.96;;;-2.83;100.00
81299;BME280;70766;53.170;18.160;2023-12-04T05:43:11;101753.99;;;-2.83;100.00
81299;BME280;70766;53.170;18.160;2023-12-04T05:45:39;101755.37;;;-2.85;100.00
81299;BME280;70766;53.170;18.160;2023-12-04T05:48:08;101751.02;;;-2.86;100.00
81299;BME280;70766;53.170;18.160;2023-12-04T05:50:36;101747.21;;;-2.86;100.00
81299;BME280;70766;53.170;18.160;2023-12-04T05:53:06;101740.52;;;-2.88;100.00
81299;BME280;70766;53.170;18.160;2023-12-04T05:55:34;101738.30;;;-2.89;100.00
81299;BME280;70766;53.170;18.160;2023-12-04T05:58:02;101736.80;;;-2.90;100.00
81299;BME280;70766;53.170;18.160;2023-12-04T06:00:31;101739.95;;;-2.92;100.00
81299;BME280;70766;53.170;18.160;2023-12-04T06:02:59;101741.81;;;-2.93;100.00
81299;BME280;70766;53.170;18.160;2023-12-04T06:05:28;101744.10;;;-2.93;100.00
81299;BME280;70766;53.170;18.160;2023-12-04T06:07:56;101741.20;;;-2.95;100.00
81299;BME280;70766;53.170;18.160;2023-12-04T06:10:26;101742.77;;;-2.97;100.00
81299;BME280;70766;53.170;18.160;2023-12-04T06:12:54;101747.64;;;-2.99;100.00
81299;BME280;70766;53.170;18.160;2023-12-04T06:15:22;101744.34;;;-3.00;100.00
81299;BME280;70766;53.170;18.160;2023-12-04T06:17:50;101742.09;;;-3.00;100.00
81299;BME280;70766;53.170;18.160;2023-12-04T06:20:19;101741.37;;;-3.02;100.00
81299;BME280;70766;53.170;18.160;2023-12-04T06:22:47;101740.07;;;-3.06;100.00
81299;BME280;70766;53.170;18.160;2023-12-04T06:25:16;101742.52;;;-3.06;100.00
81299;BME280;70766;53.170;18.160;2023-12-04T06:27:44;101746.77;;;-3.06;100.00
81299;BME280;70766;53.170;18.160;2023-12-04T06:30:13;101753.81;;;-3.07;100.00
81299;BME280;70766;53.170;18.160;2023-12-04T06:32:42;101758.14;;;-3.09;100.00
81299;BME280;70766;53.170;18.160;2023-12-04T06:35:10;101760.18;;;-3.10;100.00
81299;BME280;70766;53.170;18.160;2023-12-04T06:37:39;101759.66;;;-3.10;100.00
81299;BME280;70766;53.170;18.160;2023-12-04T06:40:08;101757.60;;;-3.11;100.00
81299;BME280;70766;53.170;18.160;2023-12-04T06:42:38;101758.02;;;-3.12;100.00
81299;BME280;70766;53.170;18.160;2023-12-04T06:45:07;101758.66;;;-3.11;100.00
81299;BME280;70766;53.170;18.160;2023-12-04T06:47:36;101759.39;;;-3.11;100.00
81299;BME280;70766;53.170;18.160;2023-12-04T06:50:05;101763.98;;;-3.12;100.00
81299;BME280;70766;53.170;18.160;2023-12-04T06:52:34;101765.06;;;-3.12;100.00
81299;BME280;70766;53.170;18.160;2023-12-04T06:55:02;101759.04;;;-3.11;100.00
81299;BME280;70766;53.170;18.160;2023-12-04T06:57:30;101757.25;;;-3.11;100.00
81299;BME280;70766;53.170;18.160;2023-12-04T06:59:59;101754.48;;;-3.09;100.00
81299;BME280;70766;53.170;18.160;2023-12-04T07:02:27;101749.89;;;-3.06;100.00
81299;BME280;70766;53.170;18.160;2023-12-04T07:04:55;101747.04;;;-3.03;100.00
81299;BME280;70766;53.170;18.160;2023-12-04T07:07:23;101745.17;;;-3.01;100.00
81299;BME280;70766;53.170;18.160;2023-12-04T07:09:52;101742.49;;;-3.01;100.00
81299;BME280;70766;53.170;18.160;2023-12-04T07:12:20;101739.36;;;-2.96;100.00
81299;BME280;70766;53.170;18.160;2023-12-04T07:14:48;101743.28;;;-2.92;100.00
81299;BME280;70766;53.170;18.160;2023-12-04T07:17:16;101746.23;;;-2.89;100.00
81299;BME280;70766;53.170;18.160;2023-12-04T07:19:44;101750.41;;;-2.87;100.00
81299;BME280;70766;53.170;18.160;2023-12-04T07:22:12;101754.35;;;-2.83;100.00
81299;BME280;70766;53.170;18.160;2023-12-04T07:24:40;101753.29;;;-2.81;100.00
81299;BME280;70766;53.170;18.160;2023-12-04T07:27:09;101753.05;;;-2.76;100.00
81299;BME280;70766;53.170;18.160;2023-12-04T07:29:37;101755.35;;;-2.71;100.00
81299;BME280;70766;53.170;18.160;2023-12-04T07:32:06;101757.13;;;-2.67;100.00
81299;BME280;70766;53.170;18.160;2023-12-04T07:34:34;101757.36;;;-2.63;100.00
81299;BME280;70766;53.170;18.160;2023-12-04T07:37:03;101759.74;;;-2.60;100.00
81299;BME280;70766;53.170;18.160;2023-12-04T07:39:31;101769.39;;;-2.58;100.00
81299;BME280;70766;53.170;18.160;2023-12-04T07:41:59;101772.25;;;-2.55;100.00
81299;BME280;70766;53.170;18.160;2023-12-04T07:44:40;101769.85;;;-2.53;100.00
81299;BME280;70766;53.170;18.160;2023-12-04T07:47:08;101767.89;;;-2.52;100.00
81299;BME280;70766;53.170;18.160;2023-12-04T07:49:36;101768.55;;;-2.49;100.00
81299;BME280;70766;53.170;18.160;2023-12-04T07:52:05;101768.80;;;-2.48;100.00
81299;BME280;70766;53.170;18.160;2023-12-04T07:54:34;101770.36;;;-2.46;100.00
81299;BME280;70766;53.170;18.160;2023-12-04T07:57:02;101771.52;;;-2.38;100.00
81299;BME280;70766;53.170;18.160;2023-12-04T07:59:31;101766.44;;;-2.31;100.00
81299;BME280;70766;53.170;18.160;2023-12-04T08:01:59;101769.40;;;-2.29;100.00
81299;BME280;70766;53.170;18.160;2023-12-04T08:04:28;101768.45;;;-2.26;100.00
81299;BME280;70766;53.170;18.160;2023-12-04T08:06:56;101772.08;;;-2.25;100.00
81299;BME280;70766;53.170;18.160;2023-12-04T08:09:24;101772.77;;;-2.18;100.00
81299;BME280;70766;53.170;18.160;2023-12-04T08:11:52;101771.52;;;-2.14;100.00
81299;BME280;70766;53.170;18.160;2023-12-04T08:14:24;101769.03;;;-2.09;100.00
81299;BME280;70766;53.170;18.160;2023-12-04T08:16:52;101767.07;;;-2.04;100.00
81299;BME280;70766;53.170;18.160;2023-12-04T08:19:20;101766.27;;;-2.00;100.00
81299;BME280;70766;53.170;18.160;2023-12-04T08:21:49;101769.82;;;-1.99;100.00
81299;BME280;70766;53.170;18.160;2023-12-04T08:24:17;101778.90;;;-1.98;100.00
81299;BME280;70766;53.170;18.160;2023-12-04T08:26:46;101778.92;;;-1.99;100.00
81299;BME280;70766;53.170;18.160;2023-12-04T08:29:14;101775.58;;;-1.98;100.00
81299;BME280;70766;53.170;18.160;2023-12-04T08:31:42;101775.81;;;-1.99;100.00
81299;BME280;70766;53.170;18.160;2023-12-04T08:34:11;101774.71;;;-1.99;100.00
81299;BME280;70766;53.170;18.160;2023-12-04T08:36:39;101777.90;;;-1.94;100.00
81299;BME280;70766;53.170;18.160;2023-12-04T08:39:13;101779.39;;;-1.95;100.00
81299;BME280;70766;53.170;18.160;2023-12-04T08:41:45;101779.70;;;-1.97;100.00
81299;BME280;70766;53.170;18.160;2023-12-04T08:44:28;101783.16;;;-1.97;100.00
81299;BME280;70766;53.170;18.160;2023-12-04T08:46:56;101785.98;;;-1.97;100.00
81299;BME280;70766;53.170;18.160;2023-12-04T08:49:26;101783.40;;;-1.93;100.00
81299;BME280;70766;53.170;18.160;2023-12-04T08:52:07;101782.70;;;-1.93;100.00
81299;BME280;70766;53.170;18.160;2023-12-04T08:54:39;101787.80;;;-1.93;100.00
81299;BME280;70766;53.170;18.160;2023-12-04T08:57:09;101786.05;;;-1.89;100.00
81299;BME280;70766;53.170;18.160;2023-12-04T08:59:37;101785.63;;;-1.88;100.00
81299;BME280;70766;53.170;18.160;2023-12-04T09:02:05;101785.70;;;-1.89;100.00
81299;BME280;70766;53.170;18.160;2023-12-04T09:04:34;101789.42;;;-1.89;100.00
81299;BME280;70766;53.170;18.160;2023-12-04T09:07:02;101791.23;;;-1.86;100.00
81299;BME280;70766;53.170;18.160;2023-12-04T09:09:34;101795.92;;;-1.81;100.00
81299;BME280;70766;53.170;18.160;2023-12-04T09:12:02;101798.31;;;-1.78;100.00
81299;BME280;70766;53.170;18.160;2023-12-04T09:14:31;101795.55;;;-1.76;100.00
81299;BME280;70766;53.170;18.160;2023-12-04T09:16:59;101796.52;;;-1.71;100.00
81299;BME280;70766;53.170;18.160;2023-12-04T09:19:28;101798.20;;;-1.70;100.00
81299;BME280;70766;53.170;18.160;2023-12-04T09:21:56;101796.62;;;-1.72;100.00
81299;BME280;70766;53.170;18.160;2023-12-04T09:24:39;101795.02;;;-1.72;100.00
81299;BME280;70766;53.170;18.160;2023-12-04T09:27:07;101793.86;;;-1.71;100.00
81299;BME280;70766;53.170;18.160;2023-12-04T09:29:36;101794.11;;;-1.67;100.00
81299;BME280;70766;53.170;18.160;2023-12-04T09:32:04;101794.04;;;-1.60;100.00
81299;BME280;70766;53.170;18.160;2023-12-04T09:34:34;101792.32;;;-1.58;100.00
81299;BME280;70766;53.170;18.160;2023-12-04T09:37:10;101796.59;;;-1.59;100.00
81299;BME280;70766;53.170;18.160;2023-12-04T09:39:40;101799.98;;;-1.59;100.00
81299;BME280;70766;53.170;18.160;2023-12-04T09:42:09;101794.16;;;-1.55;100.00
81299;BME280;70766;53.170;18.160;2023-12-04T09:44:38;101789.55;;;-1.43;100.00
81299;BME280;70766;53.170;18.160;2023-12-04T09:47:07;101789.66;;;-1.38;100.00
81299;BME280;70766;53.170;18.160;2023-12-04T09:49:37;101784.08;;;-1.36;100.00
81299;BME280;70766;53.170;18.160;2023-12-04T09:52:06;101790.10;;;-1.33;100.00
81299;BME280;70766;53.170;18.160;2023-12-04T09:54:35;101789.52;;;-1.32;100.00
81299;BME280;70766;53.170;18.160;2023-12-04T09:57:04;101789.25;;;-1.22;100.00
81299;BME280;70766;53.170;18.160;2023-12-04T09:59:33;101789.69;;;-1.13;100.00
81299;BME280;70766;53.170;18.160;2023-12-04T10:02:05;101799.39;;;-1.13;100.00
81299;BME280;70766;53.170;18.160;2023-12-04T10:04:34;101795.37;;;-1.01;100.00
81299;BME280;70766;53.170;18.160;2023-12-04T10:07:03;101793.38;;;-0.94;100.00
81299;BME280;70766;53.170;18.160;2023-12-04T10:09:32;101796.05;;;-0.84;100.00
81299;BME280;70766;53.170;18.160;2023-12-04T10:12:01;101793.91;;;-0.73;100.00
81299;BME280;70766;53.170;18.160;2023-12-04T10:14:29;101795.00;;;-0.69;100.00
81299;BME280;70766;53.170;18.160;2023-12-04T10:16:58;101787.61;;;-0.65;100.00
81299;BME280;70766;53.170;18.160;2023-12-04T10:19:28;101790.42;;;-0.71;100.00
81299;BME280;70766;53.170;18.160;2023-12-04T10:21:59;101787.83;;;-0.74;100.00
81299;BME280;70766;53.170;18.160;2023-12-04T10:26:56;101774.71;;;-0.76;100.00
81299;BME280;70766;53.170;18.160;2023-12-04T10:29:27;101774.14;;;-0.78;100.00
81299;BME280;70766;53.170;18.160;2023-12-04T10:31:59;101771.92;;;-0.83;100.00
81299;BME280;70766;53.170;18.160;2023-12-04T10:34:53;101769.23;;;-0.82;100.00
81299;BME280;70766;53.170;18.160;2023-12-04T10:37:38;101763.96;;;-0.74;100.00
81299;BME280;70766;53.170;18.160;2023-12-04T10:40:11;101765.12;;;-0.69;100.00
81299;BME280;70766;53.170;18.160;2023-12-04T10:43:24;101766.64;;;-0.60;100.00
81299;BME280;70766;53.170;18.160;2023-12-04T10:47:23;101768.34;;;-0.45;100.00
81299;BME280;70766;53.170;18.160;2023-12-04T10:49:52;101774.04;;;-0.42;100.00
81299;BME280;70766;53.170;18.160;2023-12-04T10:52:21;101774.35;;;-0.48;100.00
81299;BME280;70766;53.170;18.160;2023-12-04T10:54:50;101772.69;;;-0.40;100.00
81299;BME280;70766;53.170;18.160;2023-12-04T10:57:29;101766.64;;;-0.40;100.00
81299;BME280;70766;53.170;18.160;2023-12-04T11:00:03;101769.40;;;-0.33;100.00
81299;BME280;70766;53.170;18.160;2023-12-04T11:02:35;101766.48;;;-0.20;100.00
81299;BME280;70766;53.170;18.160;2023-12-04T11:05:08;101758.19;;;-0.15;100.00
81299;BME280;70766;53.170;18.160;2023-12-04T11:07:54;101761.96;;;-0.12;100.00
81299;BME280;70766;53.170;18.160;2023-12-04T11:13:27;101760.39;;;0.02;100.00
81299;BME280;70766;53.170;18.160;2023-12-04T11:16:07;101756.16;;;0.04;100.00
81299;BME280;70766;53.170;18.160;2023-12-04T11:18:41;101752.61;;;0.11;100.00
81299;BME280;70766;53.170;18.160;2023-12-04T11:21:11;101749.02;;;0.17;100.00
81299;BME280;70766;53.170;18.160;2023-12-04T11:23:41;101750.84;;;0.11;100.00
81299;BME280;70766;53.170;18.160;2023-12-04T11:26:11;101746.41;;;0.11;100.00
81299;BME280;70766;53.170;18.160;2023-12-04T11:28:40;101747.97;;;0.11;100.00
81299;BME280;70766;53.170;18.160;2023-12-04T11:31:08;101746.59;;;0.11;100.00
81299;BME280;70766;53.170;18.160;2023-12-04T11:33:38;101737.34;;;0.14;100.00
81299;BME280;70766;53.170;18.160;2023-12-04T11:36:12;101735.52;;;0.07;100.00
81299;BME280;70766;53.170;18.160;2023-12-04T11:38:46;101739.24;;;0.04;100.00
81299;BME280;70766;53.170;18.160;2023-12-04T11:41:16;101738.56;;;-0.00;100.00
81299;BME280;70766;53.170;18.160;2023-12-04T11:43:52;101741.31;;;-0.14;100.00
81299;BME280;70766;53.170;18.160;2023-12-04T11:46:26;101736.64;;;-0.16;100.00
81299;BME280;70766;53.170;18.160;2023-12-04T11:48:57;101733.89;;;-0.21;100.00
81299;BME280;70766;53.170;18.160;2023-12-04T11:51:45;101732.50;;;-0.33;100.00
81299;BME280;70766;53.170;18.160;2023-12-04T11:54:22;101732.10;;;-0.37;100.00
81299;BME280;70766;53.170;18.160;2023-12-04T11:56:57;101732.46;;;-0.31;100.00
81299;BME280;70766;53.170;18.160;2023-12-04T11:59:27;101732.48;;;-0.27;100.00
81299;BME280;70766;53.170;18.160;2023-12-04T12:01:59;101735.52;;;-0.06;100.00
81299;BME280;70766;53.170;18.160;2023-12-04T12:04:28;101729.75;;;0.11;100.00
81299;BME280;70766;53.170;18.160;2023-12-04T12:06:59;101729.58;;;0.07;100.00
81299;BME280;70766;53.170;18.160;2023-12-04T12:09:32;101729.83;;;0.08;100.00
81299;BME280;70766;53.170;18.160;2023-12-04T12:12:02;101726.66;;;-0.03;100.00
81299;BME280;70766;53.170;18.160;2023-12-04T12:14:31;101728.35;;;-0.06;100.00
81299;BME280;70766;53.170;18.160;2023-12-04T12:17:00;101722.77;;;-0.05;100.00
81299;BME280;70766;53.170;18.160;2023-12-04T12:19:29;101716.64;;;0.04;100.00
81299;BME280;70766;53.170;18.160;2023-12-04T12:21:58;101711.02;;;0.01;100.00
81299;BME280;70766;53.170;18.160;2023-12-04T12:24:29;101707.06;;;0.05;100.00
81299;BME280;70766;53.170;18.160;2023-12-04T12:26:57;101703.73;;;0.18;100.00
81299;BME280;70766;53.170;18.160;2023-12-04T12:29:27;101702.05;;;0.39;100.00
81299;BME280;70766;53.170;18.160;2023-12-04T12:31:55;101697.90;;;0.65;100.00
81299;BME280;70766;53.170;18.160;2023-12-04T12:34:25;101690.03;;;0.76;100.00
81299;BME280;70766;53.170;18.160;2023-12-04T12:37:00;101689.64;;;0.86;100.00
81299;BME280;70766;53.170;18.160;2023-12-04T12:39:29;101691.48;;;0.85;100.00
81299;BME280;70766;53.170;18.160;2023-12-04T12:41:58;101692.90;;;0.83;100.00
81299;BME280;70766;53.170;18.160;2023-12-04T12:44:27;101689.34;;;0.83;100.00
81299;BME280;70766;53.170;18.160;2023-12-04T12:46:56;101689.45;;;0.84;100.00
81299;BME280;70766;53.170;18.160;2023-12-04T12:49:26;101691.20;;;0.82;100.00
81299;BME280;70766;53.170;18.160;2023-12-04T12:52:06;101692.62;;;0.73;100.00